Latest Coastal Weather Observations for Onslow Airport

IDW60701

Issued at 11:42 am WST Saturday 5 September 2015 (issued every 10 minutes, with the page automatically refreshed every 10 minutes)

About coastal observations | Map of coastal stations | Coastal observations for WA | Marine services | Other Formats
Station Details ID: 005017 Name: ONSLOW AIRPORT Lat: -21.67 Lon: 115.11 Height: 10.5 m
Data from the previous 72 hours. | See also: Recent months at Onslow Airport
Date/Time
WST
Temp

°C
Wind Pressure Rain
since 9am
mm
Weather Cloud Vis
km
Sea
Height
m
Swell
Dir
 
Speed
knots
Gust
knots
hPa Trend Height
m
Period
s
Dir
05/11:30am 28.3 S 9 14 1019.3 - 0.0 - - - - - - -
05/11:00am 27.9 SSE 8 11 1019.7 - 0.0 - - - - - - -
05/10:30am 26.4 S 10 13 1019.9 - 0.0 - - - - - - -
05/10:00am 24.8 SSE 10 14 1020.1 - 0.0 - - - - - - -
05/09:30am 23.6 S 12 15 1020.3 - 0.0 - - - - - - -
05/09:00am 21.9 S 14 16 1020.3 - 0.0 - - - - - - -
05/08:30am 20.1 S 12 17 1020.2 - 0.0 - - - - - - -
05/08:00am 18.3 S 13 17 1020.3 - 0.0 - - - - - - -
05/07:30am 16.5 S 12 15 1020.0 - 0.0 - - - - - - -
05/07:00am 15.3 SSW 11 14 1019.8 - 0.0 - - - - - - -
05/06:30am 14.7 SSW 11 14 1019.6 - 0.0 - - - - - - -
05/06:00am 14.8 SSW 9 13 1019.3 - 0.0 - - - - - - -
05/05:30am 14.9 SSW 10 12 1019.2 - 0.0 - - - - - - -
05/05:00am 15.3 SSW 10 13 1018.8 - 0.0 - - - - - - -
05/04:30am 15.5 SSW 10 13 1018.6 - 0.0 - - - - - - -
05/04:00am 15.8 SSW 11 16 1018.5 - 0.0 - - - - - - -
05/03:30am 16.1 SSW 13 16 1018.5 - 0.0 - - - - - - -
05/03:00am 16.4 SSW 12 16 1018.6 - 0.0 - - - - - - -
05/02:30am 16.8 SSW 14 17 1018.7 - 0.0 - - - - - - -
05/02:00am 16.9 SW 13 16 1018.8 - 0.0 - - - - - - -
05/01:30am 17.2 SW 13 15 1018.8 - 0.0 - - - - - - -
05/01:00am 17.2 SW 13 15 1018.9 - 0.0 - - - - - - -
05/12:30am 17.4 SW 11 15 1019.0 - 0.0 - - - - - - -
05/12:00am 17.4 SW 10 13 1019.2 - 0.0 - - - - - - -
 
Date/Time
WST
Temp

°C
Wind Pressure Rain
since 9am
mm
Weather Cloud Vis
km
Sea
Height
m
Swell
Dir
 
Speed
knots
Gust
knots
hPa Trend Height
m
Period
s
Dir
04/11:30pm 17.6 WSW 11 13 1019.3 - 0.0 - - - - - - -
04/11:00pm 17.9 WSW 12 15 1019.3 - 0.0 - - - - - - -
04/10:30pm 18.2 WSW 12 16 1019.4 - 0.0 - - - - - - -
04/10:00pm 18.5 WSW 10 15 1019.5 - 0.0 - - - - - - -
04/09:30pm 18.8 WSW 9 11 1019.5 - 0.0 - - - - - - -
04/09:00pm 19.1 WSW 9 11 1019.4 - 0.0 - - - - - - -
04/08:30pm 19.5 W 11 13 1019.2 - 0.0 - - - - - - -
04/08:00pm 19.7 WSW 12 15 1018.9 - 0.0 - - - - - - -
04/07:30pm 20.1 W 13 17 1018.5 - 0.0 - - - - - - -
04/07:00pm 20.1 W 13 18 1018.2 - 0.0 - - - - - - -
04/06:30pm 20.3 W 13 17 1017.8 - 0.0 - - - - - - -
04/06:00pm 20.9 W 16 19 1017.5 - 0.0 - - - - - - -
04/05:30pm 21.8 W 17 20 1017.1 - 0.0 - - - - - - -
04/05:00pm 22.8 W 17 22 1016.8 - 0.0 - - - - - - -
04/04:30pm 24.6 W 16 22 1016.6 - 0.0 - - - - - - -
04/04:00pm 24.1 W 18 23 1016.6 - 0.0 - - - - - - -
04/03:30pm 23.7 WNW 17 22 1016.7 - 0.0 - - - - - - -
04/03:00pm 23.4 WNW 17 20 1016.9 - 0.0 - - - - - - -
04/02:30pm 24.7 WNW 16 19 1017.0 - 0.0 - - - - - - -
04/02:00pm 25.1 WNW 16 19 1017.2 - 0.0 - - - - - - -
04/01:30pm 25.6 WNW 15 17 1017.5 - 0.0 - - - - - - -
04/01:00pm 25.6 WNW 14 17 1017.8 - 0.0 - - - - - - -
04/12:30pm 27.0 WNW 9 13 1018.0 - 0.0 - - - - - - -
04/12:00pm 25.8 WSW 7 11 1018.5 - 0.0 - - - - - - -
04/11:30am 25.0 SSW 7 12 1019.0 - 0.0 - - - - - - -
04/11:00am 25.0 SW 8 13 1019.3 - 0.0 - - - - - - -
04/10:30am 24.4 SSW 9 13 1019.6 - 0.0 - - - - - - -
04/10:00am 23.3 S 11 15 1019.8 - 0.0 - - - - - - -
04/09:30am 22.4 SSW 12 16 1019.9 - 0.0 - - - - - - -
04/09:00am 21.3 SSW 11 15 1020.0 - 0.0 - - - - - - -
04/08:30am 18.5 SW 10 13 1019.9 - 0.0 - - - - - - -
04/08:00am 16.3 SSW 11 14 1019.7 - 0.0 - - - - - - -
04/07:30am 15.6 SW 11 13 1019.5 - 0.0 - - - - - - -
04/07:00am 14.1 SW 8 10 1019.1 - 0.0 - - - - - - -
04/06:30am 13.5 SW 8 10 1018.9 - 0.0 - - - - - - -
04/06:00am 14.1 SSW 9 11 1018.6 - 0.0 - - - - - - -
04/05:30am 14.4 SSW 9 11 1018.2 - 0.0 - - - - - - -
04/05:00am 14.3 SSW 8 10 1018.0 - 0.0 - - - - - - -
04/04:30am 14.2 SW 7 8 1017.8 - 0.0 - - - - - - -
04/04:00am 14.7 SW 7 10 1017.8 - 0.0 - - - - - - -
04/03:30am 15.0 SSW 8 11 1017.9 - 0.0 - - - - - - -
04/03:00am 15.1 SW 8 11 1018.0 - 0.0 - - - - - - -
04/02:30am 15.7 SW 9 12 1018.2 - 0.0 - - - - - - -
04/02:00am 15.9 SW 9 11 1018.2 - 0.0 - - - - - - -
04/01:30am 16.0 SW 8 10 1018.4 - 0.0 - - - - - - -
04/01:00am 16.4 SSW 8 10 1018.7 - 0.0 - - - - - - -
04/12:30am 16.6 SW 7 9 1018.9 - 0.0 - - - - - - -
04/12:00am 16.7 SW 7 9 1019.0 - 0.0 - - - - - - -
 
Date/Time
WST
Temp

°C
Wind Pressure Rain
since 9am
mm
Weather Cloud Vis
km
Sea
Height
m
Swell
Dir
 
Speed
knots
Gust
knots
hPa Trend Height
m
Period
s
Dir
03/11:30pm 16.9 SW 8 10 1019.1 - 0.0 - - - - - - -
03/11:00pm 17.1 SW 8 9 1019.3 - 0.0 - - - - - - -
03/10:30pm 17.8 WSW 8 11 1019.4 - 0.0 - - - - - - -
03/10:00pm 18.1 WSW 8 12 1019.4 - 0.0 - - - - - - -
03/09:30pm 18.7 WSW 9 13 1019.3 - 0.0 - - - - - - -
03/09:00pm 19.0 WSW 10 13 1019.1 - 0.0 - - - - - - -
03/08:30pm 19.3 WSW 10 12 1018.9 - 0.0 - - - - - - -
03/08:00pm 19.6 WSW 10 11 1018.6 - 0.0 - - - - - - -
03/07:30pm 20.3 W 10 13 1018.4 - 0.0 - - - - - - -
03/07:00pm 20.8 W 10 13 1018.0 - 0.0 - - - - - - -
03/06:30pm 21.1 W 12 14 1017.6 - 0.0 - - - - - - -
03/06:00pm 21.8 W 13 16 1017.3 - 0.0 - - - - - - -
03/05:30pm 23.0 W 14 18 1017.2 - 0.0 - - - - - - -
03/05:00pm 23.8 W 15 19 1017.0 - 0.0 - - - - - - -
03/04:30pm 24.7 W 15 19 1016.9 - 0.0 - - - - - - -
03/04:00pm 25.1 WNW 14 19 1016.8 - 0.0 - - - - - - -
03/03:30pm 24.9 WNW 15 19 1016.8 - 0.0 - - - - - - -
03/03:00pm 24.9 WNW 17 19 1017.2 - 0.0 - - - - - - -
03/02:30pm 25.3 WNW 16 19 1017.5 - 0.0 - - - - - - -
03/02:00pm 24.5 WNW 16 20 1017.5 - 0.0 - - - - - - -
03/01:30pm 24.5 WNW 14 17 1017.8 - 0.0 - - - - - - -
03/01:00pm 25.7 WNW 11 16 1018.3 - 0.0 - - - - - - -
03/12:30pm 25.9 SW 8 13 1018.5 - 0.0 - - - - - - -
03/12:00pm 24.8 SW 8 12 1018.9 - 0.0 - - - - - - -
03/11:30am 24.7 SSW 8 11 1019.3 - 0.0 - - - - - - -
03/11:00am 23.1 SW 8 11 1019.6 - 0.0 - - - - - - -
03/10:30am 22.8 SSW 8 13 1019.7 - 0.0 - - - - - - -
03/10:00am 21.4 SSW 10 13 1019.7 - 0.0 - - - - - - -
03/09:30am 20.0 SSW 11 14 1019.7 - 0.0 - - - - - - -
03/09:00am 18.9 SSW 13 16 1019.6 - 0.0 - - - - - - -
03/08:30am 16.9 SSW 10 13 1019.3 - 0.0 - - - - - - -
03/08:00am 14.9 SSW 12 16 1019.1 - 0.0 - - - - - - -
03/07:30am 13.8 SSW 9 12 1018.9 - 0.0 - - - - - - -
03/07:00am 12.7 SSW 9 11 1018.5 - 0.0 - - - - - - -
03/06:30am 12.2 S 9 11 1018.3 - 0.0 - - - - - - -
03/06:00am 13.2 SSW 11 14 1017.9 - 0.0 - - - - - - -
03/05:30am 13.1 SSW 11 14 1017.8 - 0.0 - - - - - - -
03/05:00am 13.5 SSW 10 13 1017.5 - 0.0 - - - - - - -
03/04:30am 13.8 SSW 11 13 1017.4 - 0.0 - - - - - - -
03/04:00am 14.5 SSW 11 15 1017.5 - 0.0 - - - - - - -
03/03:30am 14.8 SSW 12 15 1017.6 - 0.0 - - - - - - -
03/03:00am 15.0 SSW 12 16 1017.8 - 0.0 - - - - - - -
03/02:30am 15.2 SSW 12 15 1018.1 - 0.0 - - - - - - -
03/02:00am 15.4 SSW 12 15 1018.2 - 0.0 - - - - - - -
03/01:30am 15.8 SSW 11 15 1018.5 - 0.0 - - - - - - -
03/01:00am 16.2 SSW 12 15 1018.6 - 0.0 - - - - - - -
03/12:30am 16.6 SSW 12 15 1018.9 - 0.0 - - - - - - -
03/12:00am 16.9 SW 11 14 1018.9 - 0.0 - - - - - - -
 
Date/Time
WST
Temp

°C
Wind Pressure Rain
since 9am
mm
Weather Cloud Vis
km
Sea
Height
m
Swell
Dir
 
Speed
knots
Gust
knots
hPa Trend Height
m
Period
s
Dir
02/11:30pm 17.2 SW 11 14 1019.0 - 0.0 - - - - - - -
02/11:00pm 17.7 SW 11 14 1019.0 - 0.0 - - - - - - -
02/10:30pm 17.8 SW 9 11 1019.0 - 0.0 - - - - - - -
02/10:00pm 18.5 SSW 8 10 1018.9 - 0.0 - - - - - - -
02/09:30pm 18.8 SW 8 10 1018.9 - 0.0 - - - - - - -
02/09:00pm 19.3 W 7 9 1018.7 - 0.0 - - - - - - -
02/08:30pm 18.4 W 5 6 1018.6 - 0.0 - - - - - - -
02/08:00pm 18.7 W 6 7 1018.5 - 0.0 - - - - - - -
02/07:30pm 19.4 WNW 3 4 1018.0 - 0.0 - - - - - - -
02/07:00pm 19.8 W 6 7 1017.5 - 0.0 - - - - - - -
02/06:30pm 20.8 W 6 6 1017.2 - 0.0 - - - - - - -
02/06:00pm 22.3 W 8 9 1016.9 - 0.0 - - - - - - -
02/05:30pm 23.4 W 9 12 1016.8 - 0.0 - - - - - - -
02/05:00pm 23.9 WNW 10 14 1016.6 - 0.0 - - - - - - -
02/04:30pm 24.7 NW 11 13 1016.2 - 0.0 - - - - - - -
02/04:00pm 25.1 NW 11 13 1016.0 - 0.0 - - - - - - -
02/03:30pm 26.0 NW 11 15 1015.9 - 0.0 - - - - - - -
02/03:00pm 26.3 NNW 12 15 1015.9 - 0.0 - - - - - - -
02/02:30pm 26.3 NW 13 17 1015.9 - 0.0 - - - - - - -
02/02:00pm 27.3 NW 14 17 1015.9 - 0.0 - - - - - - -
02/01:30pm 26.4 NNW 14 18 1016.3 - 0.0 - - - - - - -
02/01:00pm 27.6 NW 12 16 1016.5 - 0.0 - - - - - - -
02/12:30pm 28.2 NNW 10 14 1016.9 - 0.0 - - - - - - -
02/12:00pm 28.0 NW 6 11 1017.3 - 0.0 - - - - - - -

Other Formats:

Comma delimited format used in spreadsheet applications
http://www.bom.gov.au/fwo/IDW60701/IDW60701.95305.axf

JavaScript Object Notation format (JSON) in row-major order
http://www.bom.gov.au/fwo/IDW60701/IDW60701.95305.json